Sharon, South Carolina
Current Conditions -  °F | °C
As of 8:54 PM on Wednesday 22 Oct 2014 (Local Time) from KUZA Reporting Station
Clear Clear  
Wind Chill: 52°   Ceiling: Unl
Heat Index: 52°   Visibility: 10mi
Dew Point: 40°   Wind: 8mph
Humidity: 63%   Direction: 350°N
Pressure: 30.1"   Gusts: NA
Location:  34.95°N, 81.34°W
Report Text: KUZA 230054Z AUTO 35007KT 10SM CLR 11/04 A3010 RMK AO2 SLP193 T01110044
Loading
Personal Weather Stations






























Interactive Weather Map
Tropical Storm Tracking
New forecast layout! Learn more

10-Day Weather Forecast

Advertisements
Track Severe Weather on mobile